Time,TemperatureF,DewpointF,PressureIn,WindDirection,WindDirectionDegrees,WindSpeedMPH,WindSpeedGustMPH,Humidity,HourlyPrecipIn,Conditions,Clouds,dailyrainin,SolarRadiationWatts/m^2,SoftwareType,DateUTC
2013-03-12 00:21:00,35.0,21.0,-100.00,NE,36,0.0,2.0,56,-99.99,,,0.00,0.000000,,2013-03-12 07:21:00,
2013-03-12 01:22:00,38.0,20.0,-100.00,NNE,31,0.0,2.0,47,-99.99,,,0.00,0.000000,,2013-03-12 08:22:00,
2013-03-12 02:12:00,38.0,18.0,-100.00,NE,39,1.0,2.0,44,-99.99,,,0.00,0.000000,,2013-03-12 09:12:00,
2013-03-12 02:22:00,38.0,18.0,-100.00,NE,39,1.0,2.0,44,-99.99,,,0.00,0.000000,,2013-03-12 09:22:00,
2013-03-12 03:22:00,41.0,19.0,-100.00,ENE,61,2.0,3.0,40,-99.99,,,0.00,0.000000,,2013-03-12 10:22:00,
2013-03-12 03:52:00,46.0,16.0,-100.00,ENE,57,3.0,5.0,29,-99.99,,,0.00,0.000000,,2013-03-12 10:52:00,
2013-03-12 04:22:00,46.0,16.0,-100.00,ENE,57,3.0,5.0,29,-99.99,,,0.00,0.000000,,2013-03-12 11:22:00,
2013-03-12 04:32:00,46.0,16.0,-100.00,ENE,57,3.0,5.0,29,-99.99,,,0.00,0.000000,,2013-03-12 11:32:00,
2013-03-12 04:42:00,46.0,16.0,-100.00,ENE,57,3.0,5.0,29,-99.99,,,0.00,0.000000,,2013-03-12 11:42:00,
2013-03-12 04:52:00,47.0,12.0,-100.00,ENE,67,3.0,8.0,24,0.00,,,0.00,0.000000,,2013-03-12 11:52:00,
2013-03-12 05:22:00,47.0,12.0,-100.00,ENE,67,3.0,8.0,24,0.00,,,0.00,0.000000,,2013-03-12 12:22:00,
2013-03-12 05:32:00,47.0,12.0,-100.00,ENE,67,3.0,8.0,24,0.00,,,0.00,0.000000,,2013-03-12 12:32:00,
2013-03-12 05:42:00,47.0,12.0,-100.00,ENE,67,3.0,8.0,24,0.00,,,0.00,0.000000,,2013-03-12 12:42:00,
2013-03-12 05:52:00,47.0,12.0,-100.00,NE,53,3.0,8.0,24,0.00,,,0.00,0.000000,,2013-03-12 12:52:00,
2013-03-12 06:12:00,47.0,12.0,-100.00,NE,53,3.0,8.0,24,0.00,,,0.00,0.000000,,2013-03-12 13:12:00,
2013-03-12 06:22:00,47.0,12.0,-100.00,NE,53,3.0,8.0,24,0.00,,,0.00,0.000000,,2013-03-12 13:22:00,
2013-03-12 06:32:00,47.0,12.0,-100.00,NE,53,3.0,8.0,24,0.00,,,0.00,0.000000,,2013-03-12 13:32:00,
2013-03-12 06:42:00,47.0,12.0,-100.00,NE,53,3.0,8.0,24,0.00,,,0.00,0.000000,,2013-03-12 13:42:00,
2013-03-12 06:52:00,48.0,11.0,-100.00,NE,52,4.0,8.0,22,0.00,,,0.00,0.000000,,2013-03-12 13:52:00,
2013-03-12 07:22:00,48.0,11.0,-100.00,NE,52,4.0,8.0,22,0.00,,,0.00,0.000000,,2013-03-12 14:22:00,
2013-03-12 07:32:00,48.0,11.0,-100.00,NE,52,4.0,8.0,22,0.00,,,0.00,0.000000,,2013-03-12 14:32:00,
2013-03-12 07:42:00,48.0,11.0,-100.00,NE,52,4.0,8.0,22,0.00,,,0.00,0.000000,,2013-03-12 14:42:00,
2013-03-12 07:52:00,50.0,16.0,-100.00,ENE,61,4.0,9.0,25,0.00,,,0.00,13.000000,,2013-03-12 14:52:00,
2013-03-12 08:12:00,50.0,16.0,-100.00,ENE,61,4.0,9.0,25,0.00,,,0.00,13.000000,,2013-03-12 15:12:00,
2013-03-12 08:22:00,50.0,16.0,-100.00,ENE,61,4.0,9.0,25,0.00,,,0.00,13.000000,,2013-03-12 15:22:00,
2013-03-12 08:32:00,50.0,16.0,-100.00,ENE,61,4.0,9.0,25,0.00,,,0.00,13.000000,,2013-03-12 15:32:00,
2013-03-12 08:42:00,50.0,16.0,-100.00,ENE,61,4.0,9.0,25,0.00,,,0.00,13.000000,,2013-03-12 15:42:00,
2013-03-12 08:52:00,54.0,15.0,-100.00,NE,52,5.0,12.0,21,0.00,,,0.00,137.000000,,2013-03-12 15:52:00,
2013-03-12 09:22:00,54.0,15.0,-100.00,NE,52,5.0,12.0,21,0.00,,,0.00,137.000000,,2013-03-12 16:22:00,
2013-03-12 09:32:00,54.0,15.0,-100.00,NE,52,5.0,12.0,21,0.00,,,0.00,137.000000,,2013-03-12 16:32:00,
2013-03-12 09:42:00,54.0,15.0,-100.00,NE,52,5.0,12.0,21,0.00,,,0.00,137.000000,,2013-03-12 16:42:00,
2013-03-12 09:52:00,58.0,17.0,-100.00,ENE,76,4.0,14.0,20,0.00,,,-99.99,419.000000,,2013-03-12 16:52:00,
2013-03-12 10:22:00,58.0,17.0,-100.00,ENE,76,4.0,14.0,20,0.00,,,-99.99,419.000000,,2013-03-12 17:22:00,
2013-03-12 10:33:00,58.0,17.0,-100.00,ENE,76,4.0,14.0,20,0.00,,,-99.99,419.000000,,2013-03-12 17:33:00,
2013-03-12 10:43:00,58.0,17.0,-100.00,ENE,76,4.0,14.0,20,0.00,,,-99.99,419.000000,,2013-03-12 17:43:00,
2013-03-12 10:52:00,60.0,20.0,-100.00,ENE,78,4.0,11.0,21,0.00,,,0.00,678.000000,,2013-03-12 17:52:00,
2013-03-12 11:12:00,60.0,20.0,-100.00,ENE,78,4.0,11.0,21,0.00,,,0.00,678.000000,,2013-03-12 18:12:00,
2013-03-12 11:22:00,60.0,20.0,-100.00,ENE,78,4.0,11.0,21,0.00,,,0.00,678.000000,,2013-03-12 18:22:00,
2013-03-12 11:33:00,60.0,20.0,-100.00,ENE,78,4.0,11.0,21,0.00,,,0.00,678.000000,,2013-03-12 18:33:00,
2013-03-12 11:42:00,60.0,20.0,-100.00,ENE,78,4.0,11.0,21,0.00,,,0.00,678.000000,,2013-03-12 18:42:00,
2013-03-12 11:52:00,61.0,22.0,-100.00,ENE,76,5.0,14.0,22,0.00,,,0.00,827.000000,,2013-03-12 18:52:00,
2013-03-12 12:22:00,61.0,22.0,-100.00,ENE,76,5.0,14.0,22,0.00,,,0.00,827.000000,,2013-03-12 19:22:00,
2013-03-12 12:32:00,61.0,22.0,-100.00,ENE,76,5.0,14.0,22,0.00,,,0.00,827.000000,,2013-03-12 19:32:00,
2013-03-12 12:43:00,61.0,22.0,-100.00,ENE,76,5.0,14.0,22,0.00,,,0.00,827.000000,,2013-03-12 19:43:00,
2013-03-12 12:52:00,61.0,22.0,-100.00,ENE,62,5.0,13.0,22,0.00,,,0.00,913.000000,,2013-03-12 19:52:00,
2013-03-12 13:22:00,61.0,22.0,-100.00,ENE,62,5.0,13.0,22,0.00,,,0.00,913.000000,,2013-03-12 20:22:00,
2013-03-12 13:32:00,61.0,22.0,-100.00,ENE,62,5.0,13.0,22,0.00,,,0.00,913.000000,,2013-03-12 20:32:00,
2013-03-12 13:42:00,61.0,22.0,-100.00,ENE,62,5.0,13.0,22,0.00,,,0.00,913.000000,,2013-03-12 20:42:00,
2013-03-12 13:52:00,62.0,23.0,-100.00,ENE,78,5.0,10.0,22,0.00,,,0.00,928.000000,,2013-03-12 20:52:00,
2013-03-12 14:22:00,62.0,23.0,-100.00,ENE,78,5.0,10.0,22,0.00,,,0.00,928.000000,,2013-03-12 21:22:00,
2013-03-12 14:32:00,62.0,23.0,-100.00,ENE,78,5.0,10.0,22,0.00,,,0.00,928.000000,,2013-03-12 21:32:00,
2013-03-12 14:42:00,62.0,23.0,-100.00,ENE,78,5.0,10.0,22,0.00,,,0.00,928.000000,,2013-03-12 21:42:00,
2013-03-12 14:52:00,63.0,22.0,-100.00,ENE,62,5.0,11.0,21,0.00,,,0.00,873.000000,,2013-03-12 21:52:00,
2013-03-12 15:22:00,63.0,22.0,-100.00,ENE,62,5.0,11.0,21,0.00,,,0.00,873.000000,,2013-03-12 22:22:00,
2013-03-12 15:32:00,63.0,22.0,-100.00,ENE,62,5.0,11.0,21,0.00,,,0.00,873.000000,,2013-03-12 22:32:00,
2013-03-12 15:42:00,63.0,22.0,-100.00,ENE,62,5.0,11.0,21,0.00,,,0.00,873.000000,,2013-03-12 22:42:00,
2013-03-12 15:52:00,63.0,22.0,-100.00,NE,44,5.0,11.0,21,0.00,,,0.00,747.000000,,2013-03-12 22:52:00,
2013-03-12 16:22:00,63.0,22.0,-100.00,NE,44,5.0,11.0,21,0.00,,,0.00,747.000000,,2013-03-12 23:22:00,
2013-03-12 16:34:00,63.0,22.0,-100.00,NE,44,5.0,11.0,21,0.00,,,0.00,747.000000,,2013-03-12 23:34:00,
2013-03-12 16:43:00,63.0,22.0,-100.00,NE,44,5.0,11.0,21,0.00,,,0.00,747.000000,,2013-03-12 23:43:00,
2013-03-12 16:52:00,62.0,23.0,-100.00,NE,51,4.0,10.0,22,0.00,,,0.00,567.000000,,2013-03-12 23:52:00,
2013-03-12 17:12:00,62.0,23.0,-100.00,NE,51,4.0,10.0,22,0.00,,,0.00,567.000000,,2013-03-13 00:12:00,
2013-03-12 17:22:00,62.0,23.0,-100.00,NE,51,4.0,10.0,22,0.00,,,0.00,567.000000,,2013-03-13 00:22:00,
2013-03-12 17:33:00,62.0,23.0,-100.00,NE,51,4.0,10.0,22,0.00,,,0.00,567.000000,,2013-03-13 00:33:00,
2013-03-12 17:42:00,62.0,23.0,-100.00,NE,51,4.0,10.0,22,0.00,,,0.00,567.000000,,2013-03-13 00:42:00,
2013-03-12 17:52:00,58.0,20.0,-100.00,NE,54,3.0,11.0,23,0.00,,,0.00,149.000000,,2013-03-13 00:52:00,
2013-03-12 18:12:00,58.0,20.0,-100.00,NE,54,3.0,11.0,23,0.00,,,0.00,149.000000,,2013-03-13 01:12:00,
2013-03-12 18:22:00,58.0,20.0,-100.00,NE,54,3.0,11.0,23,0.00,,,0.00,149.000000,,2013-03-13 01:22:00,
2013-03-12 18:32:00,58.0,20.0,-100.00,NE,54,3.0,11.0,23,0.00,,,0.00,149.000000,,2013-03-13 01:32:00,
2013-03-12 18:42:00,58.0,20.0,-100.00,NE,54,3.0,11.0,23,0.00,,,0.00,149.000000,,2013-03-13 01:42:00,
2013-03-12 18:52:00,54.0,19.0,-100.00,NE,55,3.0,6.0,25,0.00,,,0.00,16.000000,,2013-03-13 01:52:00,
2013-03-12 19:12:00,54.0,19.0,-100.00,NE,55,3.0,6.0,25,0.00,,,0.00,16.000000,,2013-03-13 02:12:00,
2013-03-12 19:22:00,54.0,19.0,-100.00,NE,55,3.0,6.0,25,0.00,,,0.00,16.000000,,2013-03-13 02:22:00,
2013-03-12 19:32:00,54.0,19.0,-100.00,NE,55,3.0,6.0,25,0.00,,,0.00,16.000000,,2013-03-13 02:32:00,
2013-03-12 19:42:00,54.0,19.0,-100.00,NE,55,3.0,6.0,25,0.00,,,0.00,16.000000,,2013-03-13 02:42:00,
2013-03-12 20:12:00,53.0,19.0,-100.00,NE,54,3.0,8.0,26,0.00,,,0.00,1.000000,,2013-03-13 03:12:00,
2013-03-12 20:22:00,53.0,19.0,-100.00,NE,54,3.0,8.0,26,0.00,,,0.00,1.000000,,2013-03-13 03:22:00,
2013-03-12 20:32:00,53.0,19.0,-100.00,NE,54,3.0,8.0,26,0.00,,,0.00,1.000000,,2013-03-13 03:32:00,
2013-03-12 20:42:00,53.0,19.0,-100.00,NE,54,3.0,8.0,26,0.00,,,0.00,1.000000,,2013-03-13 03:42:00,
2013-03-12 20:51:00,53.0,19.0,-100.00,NE,54,3.0,8.0,26,0.00,,,0.00,1.000000,,2013-03-13 03:51:00,
2013-03-12 20:52:00,53.0,20.0,-100.00,ENE,57,3.0,6.0,27,0.00,,,0.00,0.000000,,2013-03-13 03:52:00,
2013-03-12 21:22:00,53.0,20.0,-100.00,ENE,57,3.0,6.0,27,0.00,,,0.00,0.000000,,2013-03-13 04:22:00,
2013-03-12 21:32:00,53.0,20.0,-100.00,ENE,57,3.0,6.0,27,0.00,,,0.00,0.000000,,2013-03-13 04:32:00,
2013-03-12 21:42:00,53.0,20.0,-100.00,ENE,57,3.0,6.0,27,0.00,,,0.00,0.000000,,2013-03-13 04:42:00,
2013-03-12 21:52:00,53.0,21.0,-100.00,ENE,59,3.0,6.0,28,0.00,,,0.00,0.000000,,2013-03-13 04:52:00,
2013-03-12 22:22:00,53.0,21.0,-100.00,ENE,59,3.0,6.0,28,0.00,,,0.00,0.000000,,2013-03-13 05:22:00,
2013-03-12 22:32:00,53.0,21.0,-100.00,ENE,59,3.0,6.0,28,0.00,,,0.00,0.000000,,2013-03-13 05:32:00,
2013-03-12 22:42:00,53.0,21.0,-100.00,ENE,59,3.0,6.0,28,0.00,,,0.00,0.000000,,2013-03-13 05:42:00,
2013-03-12 22:52:00,51.0,21.0,-100.00,ENE,69,3.0,7.0,30,0.00,,,0.00,0.000000,,2013-03-13 05:52:00,
2013-03-12 23:22:00,51.0,21.0,-100.00,ENE,69,3.0,7.0,30,0.00,,,0.00,0.000000,,2013-03-13 06:22:00,
2013-03-12 23:32:00,51.0,21.0,-100.00,ENE,69,3.0,7.0,30,0.00,,,0.00,0.000000,,2013-03-13 06:32:00,
2013-03-12 23:42:00,51.0,21.0,-100.00,ENE,69,3.0,7.0,30,0.00,,,0.00,0.000000,,2013-03-13 06:42:00,
2013-03-12 23:52:00,52.0,21.0,-100.00,ENE,60,3.0,7.0,29,0.00,,,0.00,0.000000,,2013-03-13 06:52:00,